Time;durP1;ratioP1;P1;durP2;ratioP2;P2;SDS_P1;SDS_P2;PMS_P1;PMS_P2;Temp;Humidity;BMP_temperature;BMP_pressure;BME280_temperature;BME280_humidity;BME280_pressure;Samples;Min_cycle;Max_cycle;Signal;HPM_P1;HPM_P2
2024/02/11 00:00:33;;;;;;;41.90;29.50;;;9.70;99.90;;;;;;5059419;28;20435;-60
2024/02/11 00:02:58;;;;;;;53.40;29.60;;;9.70;99.90;;;;;;5071014;28;20528;-60
2024/02/11 00:05:26;;;;;;;56.03;29.03;;;9.70;99.90;;;;;;5071385;28;20174;-59
2024/02/11 00:07:52;;;;;;;49.07;29.63;;;9.70;99.90;;;;;;5071118;28;20174;-60
2024/02/11 00:10:18;;;;;;;49.17;30.93;;;9.70;99.90;;;;;;5071300;28;20433;-58
2024/02/11 00:12:43;;;;;;;50.90;28.60;;;9.70;99.90;;;;;;5070992;28;20174;-59
2024/02/11 00:15:09;;;;;;;53.13;30.33;;;9.70;99.90;;;;;;5061426;28;20514;-60
2024/02/11 00:17:36;;;;;;;53.97;32.80;;;9.70;99.90;;;;;;5071216;28;20204;-59
2024/02/11 00:20:05;;;;;;;42.87;29.87;;;9.70;99.90;;;;;;5071156;28;20432;-59
2024/02/11 00:22:33;;;;;;;46.70;29.17;;;9.70;99.90;;;;;;5063236;28;20444;-58
2024/02/11 00:25:00;;;;;;;48.23;29.90;;;9.70;99.90;;;;;;5062774;28;20547;-60
2024/02/11 00:27:26;;;;;;;46.23;29.37;;;9.70;99.90;;;;;;5056183;28;20456;-58
2024/02/11 00:29:52;;;;;;;46.70;28.30;;;9.70;99.90;;;;;;5069679;28;20794;-60
2024/02/11 00:32:18;;;;;;;61.20;32.07;;;9.70;99.90;;;;;;5071200;28;20179;-60
2024/02/11 00:34:44;;;;;;;48.53;31.93;;;9.70;99.90;;;;;;5062669;28;20198;-59
2024/02/11 00:37:11;;;;;;;51.53;30.37;;;9.70;99.90;;;;;;5071013;28;20460;-60
2024/02/11 00:39:37;;;;;;;48.17;31.50;;;9.70;99.90;;;;;;5068251;28;20268;-60
2024/02/11 00:42:03;;;;;;;52.17;31.47;;;9.70;99.90;;;;;;5054415;28;20451;-58
2024/02/11 00:44:30;;;;;;;46.27;32.47;;;9.70;99.90;;;;;;5065859;28;20848;-58
2024/02/11 00:46:56;;;;;;;51.40;32.30;;;9.70;99.90;;;;;;5066205;28;20538;-60
2024/02/11 00:49:22;;;;;;;49.20;31.03;;;9.60;99.90;;;;;;5074780;28;20507;-59
2024/02/11 00:51:48;;;;;;;59.50;30.40;;;9.60;99.90;;;;;;5074388;28;20179;-59
2024/02/11 00:54:14;;;;;;;47.70;31.40;;;9.60;99.90;;;;;;5064577;28;20213;-60
2024/02/11 00:56:41;;;;;;;54.83;32.47;;;9.60;99.90;;;;;;5074742;28;20444;-61
2024/02/11 00:59:07;;;;;;;53.77;32.37;;;9.60;99.90;;;;;;5062485;28;20417;-59
2024/02/11 01:01:33;;;;;;;53.93;30.67;;;9.60;99.90;;;;;;5062097;28;20531;-57
2024/02/11 01:03:58;;;;;;;51.67;31.43;;;9.60;99.90;;;;;;5055100;28;21472;-59
2024/02/11 01:06:25;;;;;;;57.60;34.47;;;9.50;99.90;;;;;;5060654;28;20202;-60
2024/02/11 01:08:51;;;;;;;57.57;33.07;;;9.50;99.90;;;;;;5064495;28;20198;-59
2024/02/11 01:11:18;;;;;;;54.17;30.03;;;9.50;99.90;;;;;;5056742;28;20449;-59
2024/02/11 01:13:45;;;;;;;54.97;32.33;;;9.50;99.90;;;;;;5070820;28;20553;-58
2024/02/11 01:16:11;;;;;;;54.47;34.23;;;9.40;99.90;;;;;;5048807;28;20417;-57
2024/02/11 01:18:37;;;;;;;56.13;31.60;;;9.50;99.90;;;;;;5074398;28;20424;-59
2024/02/11 01:21:07;;;;;;;51.40;33.03;;;9.40;99.90;;;;;;5062437;28;20445;-59
2024/02/11 01:23:33;;;;;;;65.00;34.20;;;9.40;99.90;;;;;;5060824;28;20231;-59
2024/02/11 01:25:58;;;;;;;63.80;38.20;;;9.40;99.90;;;;;;5062952;28;20872;-57
2024/02/11 01:28:24;;;;;;;57.53;32.20;;;9.40;99.90;;;;;;5054209;28;20422;-59
2024/02/11 01:30:49;;;;;;;61.90;33.13;;;9.40;99.90;;;;;;5053614;28;20667;-59
2024/02/11 01:33:15;;;;;;;55.50;32.13;;;9.30;99.90;;;;;;5066932;28;20528;-59
2024/02/11 01:35:41;;;;;;;59.93;35.33;;;9.30;99.90;;;;;;5055960;28;20201;-60
2024/02/11 01:38:10;;;;;;;58.90;35.23;;;9.30;99.90;;;;;;5070534;28;20207;-59
2024/02/11 01:40:36;;;;;;;54.43;31.60;;;9.30;99.90;;;;;;5053990;28;20800;-60
2024/02/11 01:43:11;;;;;;;53.20;32.90;;;9.30;99.90;;;;;;5060312;28;20440;-58
2024/02/11 01:45:37;;;;;;;57.97;33.43;;;9.30;99.90;;;;;;5062131;28;20183;-61
2024/02/11 01:48:06;;;;;;;54.17;31.30;;;9.30;99.90;;;;;;5064949;28;20448;-57
2024/02/11 01:50:35;;;;;;;59.57;33.33;;;9.20;99.90;;;;;;5066571;28;20463;-60
2024/02/11 01:53:01;;;;;;;61.50;31.10;;;9.20;99.90;;;;;;5069678;28;20922;-60
2024/02/11 01:55:27;;;;;;;58.47;32.77;;;9.20;99.90;;;;;;5060278;28;20827;-60
2024/02/11 01:57:53;;;;;;;59.33;32.73;;;9.20;99.90;;;;;;5066702;28;20432;-61
2024/02/11 02:00:20;;;;;;;61.20;30.70;;;9.20;99.90;;;;;;5053748;28;20195;-60
2024/02/11 02:02:48;;;;;;;64.83;32.10;;;9.20;99.90;;;;;;5062052;28;20911;-60
2024/02/11 02:05:15;;;;;;;52.73;31.47;;;9.20;99.90;;;;;;5060869;28;20444;-59
2024/02/11 02:07:40;;;;;;;61.07;31.77;;;9.20;99.90;;;;;;5061283;28;20540;-59
2024/02/11 02:10:07;;;;;;;63.37;32.43;;;9.20;99.90;;;;;;5064655;28;21048;-60
2024/02/11 02:12:33;;;;;;;58.07;31.20;;;9.20;99.90;;;;;;5073367;28;20166;-60
2024/02/11 02:14:59;;;;;;;72.57;33.90;;;9.20;99.90;;;;;;5071031;28;20424;-59
2024/02/11 02:17:24;;;;;;;61.17;34.07;;;9.10;99.90;;;;;;5058998;28;20413;-60
2024/02/11 02:19:51;;;;;;;60.97;31.30;;;9.10;99.90;;;;;;5061369;28;20563;-60
2024/02/11 02:22:20;;;;;;;55.33;29.33;;;9.10;99.90;;;;;;5057553;28;20395;-59
2024/02/11 02:24:49;;;;;;;68.70;32.37;;;9.10;99.90;;;;;;5063688;28;20433;-59
2024/02/11 02:27:15;;;;;;;56.27;31.23;;;9.10;99.90;;;;;;5057067;28;20466;-60
2024/02/11 02:29:41;;;;;;;54.73;30.70;;;9.10;99.90;;;;;;5055018;28;20407;-60
2024/02/11 02:32:06;;;;;;;54.33;31.53;;;9.10;99.90;;;;;;5068072;28;20420;-60
2024/02/11 02:34:32;;;;;;;66.57;34.07;;;9.10;99.90;;;;;;5068035;28;20189;-60
2024/02/11 02:36:58;;;;;;;52.00;29.07;;;9.10;99.90;;;;;;5064266;28;20213;-59
2024/02/11 02:39:24;;;;;;;63.83;34.03;;;9.10;99.90;;;;;;5072657;28;20182;-60
2024/02/11 02:41:50;;;;;;;74.33;40.00;;;9.00;99.90;;;;;;5070096;28;20178;-60
2024/02/11 02:44:16;;;;;;;59.57;33.70;;;9.00;99.90;;;;;;5070532;28;20484;-61
2024/02/11 02:46:41;;;;;;;57.37;29.87;;;9.00;99.90;;;;;;5072578;28;20873;-58
2024/02/11 02:49:07;;;;;;;54.47;31.40;;;9.00;99.90;;;;;;5054557;28;20697;-60
2024/02/11 02:51:33;;;;;;;58.50;30.13;;;9.00;99.90;;;;;;5072466;28;20182;-60
2024/02/11 02:54:03;;;;;;;70.60;32.33;;;9.00;99.90;;;;;;5072314;28;20444;-62
2024/02/11 02:56:31;;;;;;;66.70;32.17;;;9.00;99.90;;;;;;5054429;28;20318;-59
2024/02/11 02:58:57;;;;;;;55.00;29.33;;;8.90;99.90;;;;;;5070591;28;20497;-59
2024/02/11 03:01:26;;;;;;;54.00;29.23;;;9.00;99.90;;;;;;5072178;28;20934;-60
2024/02/11 03:03:52;;;;;;;57.43;27.67;;;8.90;99.90;;;;;;5071757;28;20181;-59
2024/02/11 03:06:17;;;;;;;59.30;30.53;;;8.90;99.90;;;;;;5071756;28;20463;-56
2024/02/11 03:08:43;;;;;;;57.00;31.33;;;8.90;99.90;;;;;;5072050;28;20420;-60
2024/02/11 03:11:09;;;;;;;59.10;31.70;;;9.00;99.90;;;;;;5071691;28;20200;-59
2024/02/11 03:13:34;;;;;;;56.27;31.27;;;9.00;99.90;;;;;;5072100;28;20587;-60
2024/02/11 03:16:00;;;;;;;55.70;27.83;;;9.00;99.90;;;;;;5069758;28;20185;-60
2024/02/11 03:18:26;;;;;;;58.63;28.10;;;8.90;99.90;;;;;;5071886;28;20655;-58
2024/02/11 03:20:51;;;;;;;61.27;31.97;;;8.90;99.90;;;;;;5071890;28;20196;-58
2024/02/11 03:23:17;;;;;;;57.60;29.40;;;8.90;99.90;;;;;;5071825;28;20186;-60
2024/02/11 03:25:43;;;;;;;54.00;28.30;;;8.90;99.90;;;;;;5066863;28;20656;-60
2024/02/11 03:28:08;;;;;;;53.43;30.00;;;8.80;99.90;;;;;;5071523;28;20191;-58
2024/02/11 03:30:35;;;;;;;60.57;29.40;;;8.80;99.90;;;;;;5071987;28;20613;-59
2024/02/11 03:33:01;;;;;;;52.63;30.30;;;8.80;99.90;;;;;;5071664;28;20264;-58
2024/02/11 03:35:27;;;;;;;53.27;30.67;;;8.80;99.90;;;;;;5071950;28;20428;-58
2024/02/11 03:37:52;;;;;;;51.83;29.47;;;8.80;99.90;;;;;;5071657;28;20186;-61
2024/02/11 03:40:19;;;;;;;53.63;28.90;;;8.80;99.90;;;;;;5050145;28;20305;-60
2024/02/11 03:42:45;;;;;;;51.13;26.20;;;8.80;99.90;;;;;;5066157;28;20181;-58
2024/02/11 03:45:11;;;;;;;58.37;28.40;;;8.80;99.90;;;;;;5053437;28;21001;-60
2024/02/11 03:47:39;;;;;;;60.30;30.80;;;8.80;99.90;;;;;;5071739;28;20532;-59
2024/02/11 03:50:05;;;;;;;50.23;29.70;;;8.80;99.90;;;;;;5071321;28;20440;-59
2024/02/11 03:52:34;;;;;;;49.80;29.93;;;8.80;99.90;;;;;;5071301;28;20477;-60
2024/02/11 03:55:00;;;;;;;57.30;29.37;;;8.80;99.90;;;;;;5071356;28;20926;-60
2024/02/11 03:57:26;;;;;;;58.70;27.80;;;8.90;99.90;;;;;;5069547;28;20447;-61
2024/02/11 03:59:51;;;;;;;49.47;26.50;;;8.80;99.90;;;;;;5071240;28;20939;-60
2024/02/11 04:02:18;;;;;;;55.27;29.10;;;8.80;99.90;;;;;;5071193;28;20260;-57
2024/02/11 04:04:45;;;;;;;51.03;29.60;;;8.80;99.90;;;;;;5071802;28;20185;-59
2024/02/11 04:07:11;;;;;;;56.33;29.63;;;8.80;99.90;;;;;;5052560;28;20499;-60
2024/02/11 04:09:39;;;;;;;51.50;28.47;;;8.80;99.90;;;;;;5071632;28;20514;-60
2024/02/11 04:12:10;;;;;;;51.60;24.63;;;8.80;99.90;;;;;;5071119;28;20184;-60
2024/02/11 04:14:45;;;;;;;63.97;30.40;;;8.80;99.90;;;;;;5066416;28;20443;-60
2024/02/11 04:17:14;;;;;;;64.00;30.57;;;8.80;99.90;;;;;;5071142;28;20465;-57
2024/02/11 04:19:40;;;;;;;50.97;26.30;;;8.80;99.90;;;;;;5075022;28;20459;-59
2024/02/11 04:22:10;;;;;;;48.10;29.07;;;8.80;99.90;;;;;;5072414;28;20469;-60
2024/02/11 04:24:39;;;;;;;50.70;24.83;;;8.80;99.90;;;;;;5073640;28;20448;-60
2024/02/11 04:27:07;;;;;;;43.33;27.93;;;8.80;99.90;;;;;;5074312;28;20607;-59
2024/02/11 04:29:33;;;;;;;53.73;27.83;;;8.80;99.90;;;;;;5075007;28;20420;-60
2024/02/11 04:31:59;;;;;;;57.73;30.60;;;8.80;99.90;;;;;;5074714;28;20446;-60
2024/02/11 04:34:26;;;;;;;54.73;28.33;;;8.80;99.90;;;;;;5074998;28;20303;-58
2024/02/11 04:36:52;;;;;;;56.60;27.37;;;8.80;99.90;;;;;;5074598;28;20787;-60
2024/02/11 04:39:18;;;;;;;57.37;30.93;;;8.80;99.90;;;;;;5074915;28;20427;-59
2024/02/11 04:41:44;;;;;;;48.40;27.47;;;8.80;99.90;;;;;;5072936;28;20206;-59
2024/02/11 04:44:10;;;;;;;50.90;27.27;;;8.80;99.90;;;;;;5074800;28;20548;-60
2024/02/11 04:46:37;;;;;;;47.37;26.87;;;8.80;99.90;;;;;;5074816;28;20333;-60
2024/02/11 04:49:03;;;;;;;53.80;28.30;;;8.80;99.90;;;;;;5056697;28;20189;-61
2024/02/11 04:51:29;;;;;;;53.70;28.33;;;8.80;99.90;;;;;;5074659;28;21034;-60
2024/02/11 04:53:57;;;;;;;49.00;26.90;;;8.80;99.90;;;;;;5072216;28;20660;-59
2024/02/11 04:56:29;;;;;;;60.17;28.23;;;8.80;99.90;;;;;;5074654;28;20706;-60
2024/02/11 04:59:01;;;;;;;54.13;28.20;;;8.80;99.90;;;;;;5074454;28;20993;-59
2024/02/11 05:01:27;;;;;;;56.40;28.37;;;8.80;99.90;;;;;;5074440;28;20440;-56
2024/02/11 05:03:53;;;;;;;53.20;26.13;;;8.80;99.90;;;;;;5074116;28;20760;-59
2024/02/11 05:06:23;;;;;;;53.80;26.90;;;8.70;99.90;;;;;;5074222;28;20450;-60
2024/02/11 05:08:49;;;;;;;58.43;27.80;;;8.70;99.90;;;;;;5074755;28;20237;-59
2024/02/11 05:11:15;;;;;;;51.50;27.20;;;8.70;99.90;;;;;;5072451;28;20487;-58
2024/02/11 05:13:43;;;;;;;59.43;29.40;;;8.70;99.90;;;;;;5074351;28;20864;-59
2024/02/11 05:16:14;;;;;;;55.07;28.80;;;8.70;99.90;;;;;;5074183;28;20182;-60
2024/02/11 05:18:42;;;;;;;59.60;28.53;;;8.70;99.90;;;;;;5074420;28;20454;-59
2024/02/11 05:21:09;;;;;;;50.97;27.50;;;8.70;99.90;;;;;;5074072;28;20471;-59
2024/02/11 05:23:37;;;;;;;64.60;28.93;;;8.70;99.90;;;;;;5074079;28;20431;-60
2024/02/11 05:26:05;;;;;;;59.47;27.63;;;8.60;99.90;;;;;;5071604;28;20992;-60
2024/02/11 05:28:34;;;;;;;59.27;30.10;;;8.60;99.90;;;;;;5055375;28;20946;-59
2024/02/11 05:31:01;;;;;;;55.13;27.93;;;8.60;99.90;;;;;;5073464;28;20455;-60
2024/02/11 05:33:26;;;;;;;53.77;27.30;;;8.60;99.90;;;;;;5073521;28;20432;-60
2024/02/11 05:35:52;;;;;;;58.73;28.00;;;8.60;99.90;;;;;;5074304;28;20430;-60
2024/02/11 05:38:24;;;;;;;52.00;28.70;;;8.60;99.90;;;;;;5073622;28;20184;-59
2024/02/11 05:40:50;;;;;;;54.37;26.30;;;8.60;99.90;;;;;;5073815;28;20208;-59
2024/02/11 05:43:16;;;;;;;60.33;27.87;;;8.60;99.90;;;;;;5071625;28;20475;-58
2024/02/11 05:45:43;;;;;;;51.17;31.03;;;8.60;99.90;;;;;;5073774;28;20428;-60
2024/02/11 05:48:12;;;;;;;54.53;27.43;;;8.50;99.90;;;;;;5073485;28;20431;-59
2024/02/11 05:50:39;;;;;;;55.73;27.43;;;8.50;99.90;;;;;;5073572;28;20455;-60
2024/02/11 05:53:05;;;;;;;57.53;27.73;;;8.50;99.90;;;;;;5073164;28;20433;-58
2024/02/11 05:55:31;;;;;;;50.83;27.07;;;8.50;99.90;;;;;;5073553;28;20512;-60
2024/02/11 05:57:57;;;;;;;57.60;26.93;;;8.50;99.90;;;;;;5073288;28;20465;-60
2024/02/11 06:00:31;;;;;;;53.77;28.77;;;8.50;99.90;;;;;;5071769;28;20198;-58
2024/02/11 06:02:57;;;;;;;60.30;28.73;;;8.50;99.90;;;;;;5073345;28;20507;-60
2024/02/11 06:05:24;;;;;;;64.13;28.43;;;8.50;99.90;;;;;;5073648;28;20815;-60
2024/02/11 06:07:54;;;;;;;56.67;27.67;;;8.50;99.90;;;;;;5073210;28;20474;-60
2024/02/11 06:10:23;;;;;;;46.93;26.33;;;8.40;99.90;;;;;;5072879;28;20433;-57
2024/02/11 06:12:50;;;;;;;59.83;28.17;;;8.40;99.90;;;;;;5073172;28;20477;-58
2024/02/11 06:15:20;;;;;;;62.53;27.63;;;8.40;99.90;;;;;;5071089;28;20417;-57
2024/02/11 06:17:47;;;;;;;60.23;28.77;;;8.30;99.90;;;;;;5072917;28;20423;-59
2024/02/11 06:20:14;;;;;;;59.77;27.50;;;8.30;99.90;;;;;;5072892;28;20819;-59
2024/02/11 06:22:42;;;;;;;55.33;25.60;;;8.30;99.90;;;;;;5072659;28;20483;-59
2024/02/11 06:25:08;;;;;;;61.07;29.93;;;8.30;99.90;;;;;;5073157;28;20787;-60
2024/02/11 06:27:34;;;;;;;57.93;28.37;;;8.30;99.90;;;;;;5065243;28;20467;-58
2024/02/11 06:30:00;;;;;;;65.70;28.77;;;8.20;99.90;;;;;;5069407;28;20573;-60
2024/02/11 06:32:25;;;;;;;55.00;26.77;;;8.20;99.90;;;;;;5072601;28;20202;-59
2024/02/11 06:34:52;;;;;;;67.00;27.90;;;8.20;99.90;;;;;;5072953;28;20272;-59
2024/02/11 06:37:19;;;;;;;58.70;26.87;;;8.20;99.90;;;;;;5072596;28;20179;-60
2024/02/11 06:39:46;;;;;;;62.03;28.63;;;8.20;99.90;;;;;;5072908;28;20449;-59
2024/02/11 06:42:14;;;;;;;60.90;28.77;;;8.20;99.90;;;;;;5071689;28;20477;-60
2024/02/11 06:44:40;;;;;;;59.27;32.30;;;8.20;99.90;;;;;;5070642;28;20433;-59
2024/02/11 06:47:09;;;;;;;55.63;29.60;;;8.20;99.90;;;;;;5072608;28;20469;-59
2024/02/11 06:49:38;;;;;;;62.50;32.00;;;8.10;99.90;;;;;;5072628;28;20504;-60
2024/02/11 06:52:10;;;;;;;45.70;22.73;;;8.10;99.90;;;;;;5072617;28;20517;-60
2024/02/11 06:54:40;;;;;;;58.30;27.37;;;8.10;99.90;;;;;;5072670;28;20420;-59
2024/02/11 06:57:06;;;;;;;56.63;27.17;;;8.10;99.90;;;;;;5072177;28;20465;-59
2024/02/11 06:59:33;;;;;;;52.47;25.90;;;8.00;99.90;;;;;;5072647;28;20827;-60
2024/02/11 07:01:59;;;;;;;64.20;29.00;;;8.00;99.90;;;;;;5070632;28;20464;-58
2024/02/11 07:04:27;;;;;;;65.03;30.33;;;8.00;99.90;;;;;;5072377;28;20418;-60
2024/02/11 07:06:53;;;;;;;62.87;29.37;;;8.00;99.90;;;;;;5072415;28;20497;-61
2024/02/11 07:09:22;;;;;;;63.37;30.77;;;8.00;99.90;;;;;;5072269;28;20455;-59
2024/02/11 07:11:49;;;;;;;56.90;28.57;;;8.00;99.90;;;;;;5072184;28;20438;-61
2024/02/11 07:14:18;;;;;;;53.57;27.70;;;8.00;99.90;;;;;;5054216;28;20426;-60
2024/02/11 07:16:44;;;;;;;57.70;29.00;;;8.00;99.90;;;;;;5071415;28;20421;-59
2024/02/11 07:19:10;;;;;;;53.90;27.87;;;8.00;99.90;;;;;;5070160;28;20940;-59
2024/02/11 07:21:36;;;;;;;65.07;31.87;;;8.00;99.90;;;;;;5071903;28;20478;-60
2024/02/11 07:24:04;;;;;;;60.67;28.17;;;8.00;99.90;;;;;;5071907;28;20416;-59
2024/02/11 07:26:29;;;;;;;52.20;24.73;;;8.10;99.90;;;;;;5072076;28;20526;-64
2024/02/11 07:28:55;;;;;;;55.20;27.07;;;8.00;99.90;;;;;;5066324;28;20580;-61
2024/02/11 07:31:21;;;;;;;60.30;27.77;;;8.00;99.90;;;;;;5070349;28;20742;-61
2024/02/11 07:33:47;;;;;;;64.57;28.07;;;8.00;99.90;;;;;;5050691;28;20417;-59
2024/02/11 07:36:12;;;;;;;53.57;28.47;;;8.00;99.90;;;;;;5070043;28;20694;-62
2024/02/11 07:38:39;;;;;;;75.57;30.03;;;8.00;99.90;;;;;;5071969;28;20234;-59
2024/02/11 07:41:07;;;;;;;64.83;27.53;;;8.00;99.90;;;;;;5071634;28;20210;-62
2024/02/11 07:43:33;;;;;;;49.67;30.00;;;8.00;99.90;;;;;;5071659;28;20511;-60
2024/02/11 07:46:01;;;;;;;60.80;31.90;;;8.00;99.90;;;;;;5069704;28;20475;-60
2024/02/11 07:48:28;;;;;;;58.00;28.83;;;8.00;99.90;;;;;;5065216;28;20505;-60
2024/02/11 07:50:53;;;;;;;61.67;30.60;;;8.10;99.90;;;;;;5071176;28;20440;-60
2024/02/11 07:53:19;;;;;;;54.83;27.60;;;8.00;99.90;;;;;;5070869;28;20407;-60
2024/02/11 07:55:45;;;;;;;128.53;65.13;;;8.00;99.90;;;;;;5071557;28;20201;-58
2024/02/11 07:58:11;;;;;;;65.23;29.07;;;8.20;99.90;;;;;;5071329;28;20176;-60
2024/02/11 08:00:37;;;;;;;58.13;28.37;;;8.10;99.90;;;;;;5071520;28;20453;-60
2024/02/11 08:03:04;;;;;;;54.30;27.03;;;8.10;99.90;;;;;;5069403;28;20526;-60
2024/02/11 08:05:30;;;;;;;53.87;27.37;;;8.00;99.90;;;;;;5071886;28;20424;-58
2024/02/11 08:07:56;;;;;;;60.23;29.57;;;8.00;99.90;;;;;;5071926;28;20452;-61
2024/02/11 08:10:22;;;;;;;80.47;32.80;;;8.00;99.90;;;;;;5053776;28;21023;-58
2024/02/11 08:12:49;;;;;;;162.50;80.10;;;8.30;99.90;;;;;;5071224;28;20184;-59
2024/02/11 08:15:15;;;;;;;149.03;82.63;;;8.60;99.90;;;;;;5071119;28;20485;-59
2024/02/11 08:17:41;;;;;;;53.90;26.07;;;8.60;99.90;;;;;;5067137;28;20543;-59
2024/02/11 08:20:10;;;;;;;67.13;27.90;;;8.40;99.90;;;;;;5070640;28;20247;-61
2024/02/11 08:22:39;;;;;;;58.03;24.67;;;8.30;99.90;;;;;;5071321;28;20417;-60
2024/02/11 08:25:07;;;;;;;55.50;27.03;;;8.20;99.90;;;;;;5070833;28;20448;-59
2024/02/11 08:27:34;;;;;;;47.63;25.53;;;8.20;99.90;;;;;;5070937;28;21166;-58
2024/02/11 08:29:59;;;;;;;58.67;27.53;;;8.20;99.90;;;;;;5068647;28;20469;-59
2024/02/11 08:32:25;;;;;;;61.03;27.87;;;8.10;99.90;;;;;;5070768;28;20424;-59
2024/02/11 08:34:52;;;;;;;56.33;26.37;;;8.10;99.90;;;;;;5071285;28;20180;-59
2024/02/11 08:37:17;;;;;;;58.90;26.23;;;8.10;99.90;;;;;;5071014;28;20434;-58
2024/02/11 08:39:43;;;;;;;52.90;25.17;;;8.10;99.90;;;;;;5071359;28;20944;-59
2024/02/11 08:42:09;;;;;;;57.67;27.60;;;8.10;99.90;;;;;;5070778;28;20189;-59
2024/02/11 08:44:35;;;;;;;52.13;27.57;;;8.10;99.90;;;;;;5071184;28;20197;-60
2024/02/11 08:47:02;;;;;;;53.30;26.47;;;8.10;99.90;;;;;;5069998;28;20457;-61
2024/02/11 08:49:29;;;;;;;66.87;26.67;;;8.20;99.90;;;;;;5071263;28;20417;-60
2024/02/11 08:51:55;;;;;;;52.93;25.77;;;8.20;99.90;;;;;;5070865;28;20437;-61
2024/02/11 08:54:21;;;;;;;69.67;28.13;;;8.20;99.90;;;;;;5070808;28;20415;-60
2024/02/11 08:56:47;;;;;;;55.30;28.63;;;8.20;99.90;;;;;;5070696;28;20808;-60
2024/02/11 08:59:13;;;;;;;62.97;29.53;;;8.20;99.90;;;;;;5070770;28;20518;-60
2024/02/11 09:01:52;;;;;;;60.87;29.97;;;8.20;99.90;;;;;;5070639;28;20443;-59
2024/02/11 09:04:19;;;;;;;62.27;26.77;;;8.30;99.90;;;;;;5068798;28;20415;-57
2024/02/11 09:06:46;;;;;;;56.73;27.67;;;8.30;99.90;;;;;;5064717;28;20546;-63
2024/02/11 09:09:12;;;;;;;50.63;24.90;;;8.30;99.90;;;;;;5072475;28;20420;-63
2024/02/11 09:11:38;;;;;;;55.57;25.77;;;8.30;99.90;;;;;;5074341;28;20441;-59
2024/02/11 09:14:04;;;;;;;65.40;28.17;;;8.30;99.90;;;;;;5072969;28;20420;-62
2024/02/11 09:16:30;;;;;;;62.43;27.73;;;8.30;99.90;;;;;;5073989;28;20427;-62
2024/02/11 09:18:56;;;;;;;60.93;29.50;;;8.30;99.90;;;;;;5072505;28;20178;-62
2024/02/11 09:21:22;;;;;;;55.70;26.07;;;8.30;99.90;;;;;;5065617;28;20446;-60
2024/02/11 09:23:48;;;;;;;62.90;29.23;;;8.40;99.90;;;;;;5074036;28;20424;-64
2024/02/11 09:26:13;;;;;;;55.27;27.97;;;8.50;99.90;;;;;;5074129;28;20225;-63
2024/02/11 09:28:39;;;;;;;62.93;28.40;;;8.40;99.90;;;;;;5052763;28;20208;-64
2024/02/11 09:31:05;;;;;;;59.07;29.80;;;8.40;99.90;;;;;;5068558;28;20220;-64
2024/02/11 09:33:31;;;;;;;55.00;27.03;;;8.40;99.90;;;;;;5072513;28;20273;-63
2024/02/11 09:35:57;;;;;;;71.30;28.27;;;8.40;99.90;;;;;;5056180;28;20213;-62
2024/02/11 09:38:22;;;;;;;51.70;27.07;;;8.50;99.90;;;;;;5071459;28;20174;-64
2024/02/11 09:40:51;;;;;;;61.27;27.07;;;8.50;99.90;;;;;;5073529;28;20437;-58
2024/02/11 09:43:20;;;;;;;62.33;26.80;;;8.40;99.90;;;;;;5073494;28;20854;-58
2024/02/11 09:45:48;;;;;;;62.40;27.00;;;8.50;99.90;;;;;;5073783;28;20420;-59
2024/02/11 09:48:16;;;;;;;58.40;27.33;;;8.50;99.90;;;;;;5073336;28;20929;-64
2024/02/11 09:50:44;;;;;;;59.40;27.90;;;8.50;99.90;;;;;;5055865;28;20478;-59
2024/02/11 09:53:14;;;;;;;59.63;26.37;;;8.40;99.90;;;;;;5071482;28;20411;-59
2024/02/11 09:55:42;;;;;;;64.20;28.63;;;8.50;99.90;;;;;;5073568;28;20470;-59
2024/02/11 09:58:08;;;;;;;56.10;26.97;;;8.50;99.90;;;;;;5073614;28;20421;-60
2024/02/11 10:00:34;;;;;;;57.40;28.37;;;8.50;99.90;;;;;;5065202;28;20425;-59
2024/02/11 10:03:02;;;;;;;49.27;25.93;;;8.50;99.90;;;;;;5073472;28;20181;-59
2024/02/11 10:05:35;;;;;;;50.17;25.50;;;8.50;99.90;;;;;;5072747;28;20466;-59
2024/02/11 10:08:09;;;;;;;50.17;26.10;;;8.50;99.90;;;;;;5071887;28;20494;-59
2024/02/11 10:10:34;;;;;;;62.10;30.67;;;8.50;99.90;;;;;;5063969;28;20471;-61
2024/02/11 10:13:02;;;;;;;46.23;24.20;;;8.50;99.90;;;;;;5071404;28;20939;-60
2024/02/11 10:15:35;;;;;;;51.20;26.43;;;8.50;99.90;;;;;;5070831;28;20205;-61
2024/02/11 10:18:08;;;;;;;46.80;24.63;;;8.50;99.90;;;;;;5073280;28;20424;-62
2024/02/11 10:20:37;;;;;;;53.43;27.10;;;8.50;99.90;;;;;;5073071;28;20919;-64
2024/02/11 10:23:05;;;;;;;49.07;27.53;;;8.50;99.90;;;;;;5072796;28;20439;-64
2024/02/11 10:25:31;;;;;;;48.67;25.43;;;8.50;99.90;;;;;;5072935;28;20566;-62
2024/02/11 10:27:58;;;;;;;48.10;24.50;;;8.50;99.90;;;;;;5071010;28;20589;-56
2024/02/11 10:30:24;;;;;;;43.20;24.20;;;8.50;99.90;;;;;;5072554;28;20452;-63
2024/02/11 10:32:50;;;;;;;39.77;24.43;;;8.50;99.90;;;;;;5070785;28;20446;-63
2024/02/11 10:35:17;;;;;;;42.10;25.50;;;8.50;99.90;;;;;;5072604;28;20219;-63
2024/02/11 10:37:45;;;;;;;43.23;20.70;;;8.50;99.90;;;;;;5072881;28;20421;-60
2024/02/11 10:40:11;;;;;;;40.90;20.80;;;8.60;99.90;;;;;;5072560;28;20472;-60
2024/02/11 10:42:41;;;;;;;49.70;24.33;;;8.60;99.90;;;;;;5064377;28;20792;-60
2024/02/11 10:45:09;;;;;;;38.00;20.67;;;8.60;99.90;;;;;;5072765;28;20422;-60
2024/02/11 10:47:36;;;;;;;44.50;23.50;;;8.60;99.90;;;;;;5070706;28;20869;-61
2024/02/11 10:50:03;;;;;;;38.80;22.50;;;8.60;99.90;;;;;;5072811;28;20551;-62
2024/02/11 10:52:36;;;;;;;30.33;20.80;;;8.60;99.90;;;;;;5072315;28;20421;-62
2024/02/11 10:55:10;;;;;;;46.27;21.97;;;8.60;99.90;;;;;;5051164;28;20442;-60
2024/02/11 10:57:55;;;;;;;45.13;22.20;;;8.60;99.90;;;;;;5071632;28;20460;-62
2024/02/11 11:00:22;;;;;;;49.63;27.03;;;8.60;99.90;;;;;;5072113;28;20973;-60
2024/02/11 11:02:59;;;;;;;41.30;21.97;;;8.60;99.90;;;;;;5072054;28;20478;-62
2024/02/11 11:05:42;;;;;;;40.13;22.43;;;8.60;99.90;;;;;;5070322;28;20464;-61
2024/02/11 11:08:10;;;;;;;39.77;23.40;;;8.60;99.90;;;;;;5072056;28;21092;-61
2024/02/11 11:10:37;;;;;;;41.77;23.90;;;8.60;99.90;;;;;;5072040;28;20467;-60
2024/02/11 11:13:03;;;;;;;32.27;21.43;;;8.60;99.90;;;;;;5072064;28;20430;-60
2024/02/11 11:15:33;;;;;;;37.37;22.83;;;8.70;99.90;;;;;;5071670;28;20508;-60
2024/02/11 11:18:03;;;;;;;37.87;23.80;;;8.70;99.90;;;;;;5072217;28;20213;-62
2024/02/11 11:20:33;;;;;;;42.47;22.20;;;8.80;99.90;;;;;;5069589;28;20463;-60
2024/02/11 11:22:59;;;;;;;41.77;23.93;;;8.80;99.90;;;;;;5071768;28;20490;-61
2024/02/11 11:25:34;;;;;;;39.70;24.93;;;8.80;99.90;;;;;;5071768;28;20803;-61
2024/02/11 11:28:16;;;;;;;34.60;21.37;;;8.70;99.90;;;;;;5071452;28;20883;-61
2024/02/11 11:30:42;;;;;;;43.47;23.23;;;8.80;99.90;;;;;;5066671;28;20833;-61
2024/02/11 11:33:11;;;;;;;43.37;22.33;;;8.80;99.90;;;;;;5069459;28;20519;-60
2024/02/11 11:35:37;;;;;;;42.33;23.73;;;8.90;99.90;;;;;;5072193;28;20503;-62
2024/02/11 11:38:03;;;;;;;38.17;22.20;;;8.90;99.90;;;;;;5071975;28;20507;-61
2024/02/11 11:40:30;;;;;;;35.20;21.40;;;8.90;99.90;;;;;;5071268;28;20939;-63
2024/02/11 11:42:55;;;;;;;36.80;21.63;;;8.90;99.90;;;;;;5071454;28;20194;-60
2024/02/11 11:45:21;;;;;;;35.90;22.00;;;8.90;99.90;;;;;;5071469;28;20442;-63
2024/02/11 11:47:55;;;;;;;38.67;20.00;;;8.80;99.90;;;;;;5053121;28;20212;-63
2024/02/11 11:50:21;;;;;;;32.77;21.30;;;8.70;99.90;;;;;;5067728;28;20453;-60
2024/02/11 11:52:57;;;;;;;40.73;23.23;;;8.80;99.90;;;;;;5071650;28;20843;-59
2024/02/11 11:55:24;;;;;;;43.13;22.30;;;8.80;99.90;;;;;;5071223;28;20184;-59
2024/02/11 11:58:00;;;;;;;42.20;24.10;;;8.70;99.90;;;;;;5071608;28;20439;-59
2024/02/11 12:00:26;;;;;;;40.80;22.40;;;8.80;99.90;;;;;;5071379;28;20929;-60
2024/02/11 12:02:53;;;;;;;41.97;23.97;;;8.70;99.90;;;;;;5069203;28;20437;-60
2024/02/11 12:05:19;;;;;;;33.80;21.80;;;8.70;99.90;;;;;;5071257;28;20436;-59
2024/02/11 12:07:44;;;;;;;35.10;22.00;;;8.70;99.90;;;;;;5071432;28;20873;-61
2024/02/11 12:10:13;;;;;;;43.53;23.90;;;8.70;99.90;;;;;;5071400;28;20202;-67
2024/02/11 12:12:38;;;;;;;42.33;24.07;;;8.70;99.90;;;;;;5071048;28;20197;-60
2024/02/11 12:15:05;;;;;;;39.17;23.60;;;8.60;99.90;;;;;;5071411;28;20428;-60
2024/02/11 12:17:30;;;;;;;43.47;23.27;;;8.60;99.90;;;;;;5071118;28;20190;-60
2024/02/11 12:19:57;;;;;;;34.93;19.67;;;8.60;99.90;;;;;;5071289;28;20462;-61
2024/02/11 12:22:23;;;;;;;37.00;21.43;;;8.60;99.90;;;;;;5069122;28;20193;-60
2024/02/11 12:24:48;;;;;;;39.27;24.97;;;8.60;99.90;;;;;;5071300;28;20431;-61
2024/02/11 12:27:17;;;;;;;41.30;23.30;;;8.60;99.90;;;;;;5071388;28;20583;-61
2024/02/11 12:29:58;;;;;;;37.03;21.80;;;8.60;99.90;;;;;;5071636;28;20210;-61
2024/02/11 12:32:25;;;;;;;36.67;22.73;;;8.60;99.90;;;;;;5071580;28;20423;-62
2024/02/11 12:34:56;;;;;;;48.47;25.50;;;8.60;99.90;;;;;;5065691;28;20440;-64